AirNav   Air Wisconsin pilot careers
 
 1025 users online  

5HO Hope Airport
Hope, Alaska, USA

GOING TO HOPE?


FAA INFORMATION EFFECTIVE 16 AUGUST 2018

Location

FAA Identifier: 5HO
Lat/Long: 60-54-26.1100N / 149-37-22.1200W
60-54.435167N / 149-37.368667W
60.9072528 / -149.6228111
(estimated)
Elevation: 193.9 ft. / 59 m (estimated)
Variation: 25E (1985)
From city: 1 mile SE of HOPE, AK
Time zone: UTC -8 (UTC -9 during Standard Time)
Zip code: 99605

Airport Operations

Airport use: Open to the public
Activation date: 11/1950
Control tower: no
ARTCC: ANCHORAGE CENTER
FSS: KENAI FLIGHT SERVICE STATION [907-283-8469]
NOTAMs facility: ENA (NOTAM-D service available)
Attendance: UNATNDD
Wind indicator: yes, WINDSOCKS LOCATED AT BOTH ENDS OF RWY 17/35.
Segmented circle: yes

Airport Communications

CTAF: 122.9
WX ASOS at LHD (19 nm NW): PHONE 907-245-1618
WX ASOS at ANC (19 nm NW): 118.4 (907-271-5278)
WX ASOS at MRI (19 nm N): PHONE 907-271-5277

Nearby radio navigation aids

VOR radial/distance  VOR name  Freq  Var
TEDr130/18.5ANCHORAGE VOR/DME113.1518E

 
NDB name  Hdg/Dist  Freq  Var  ID
CAMPBELL LAKE126/20.133816ECMQ -.-. -- --.-

Airport Services

Airframe service: NONE
Powerplant service: NONE
Bottled oxygen: NONE
Bulk oxygen: NONE

Runway Information

Runway 17/35

Dimensions: 2040 x 60 ft. / 622 x 18 m
Surface: gravel, in good condition
Runway edge markings: NSTD MKGS RYS 17 & 35; RWY THLDS MKD WITH PLASTIC MARKERS.
RUNWAY 17  RUNWAY 35
Latitude: 60-54.601333N60-54.269000N
Longitude: 149-37.327333W149-37.410000W
Elevation: 159.3 ft.193.9 ft.
Gradient: 1.5%1.5%
Traffic pattern: leftleft
Markings: NSTDNSTD
Obstructions: 56 ft. trees, 110 ft. left and right of centerline51 ft. trees, 5 ft. from runway

Airport Ownership and Management from official FAA records

Ownership: Publicly-owned
Owner: ALASKA DOT&PF CENTRAL REGION
P.O. BOX 196900
ANCHORAGE, AK 99519-6900
Phone 907-338-1466
Manager: DREW MOTSINGER
STATE OF AK - DOTPF, 35200 HOPE HWY
HOPE, AK 99605
Phone 907-269-5672
FOREMAN FROM SILVERTIP STATION.

Airport Operational Statistics

Aircraft based on the field: 8
Single engine airplanes: 8
    
Aircraft operations: avg 40/month *
58% local general aviation
31% transient general aviation
10% air taxi
* for 12-month period ending 31 December 2013

Additional Remarks

BE ALERT RWY CONDITION NOT MONITORED. RECOMMEND VISUAL INSPECTION PRIOR TO LANDING.
SAFETY AREA NORTH END CLEARED 470 FT, SAFETY AREA SOUTH END CLEARED 580 FT.

Instrument Procedures

There are no published instrument procedures at 5HO.

Some nearby airports with instrument procedures:

PANC - Ted Stevens Anchorage International Airport (19 nm NW)
PAMR - Merrill Field Airport (19 nm N)
PAED - Elmendorf Air Force Base (21 nm N)
PAFR - Bryant Army Airfield Heliport (22 nm N)
PAGQ - Big Lake Airport (38 nm N)
 
Loc | Ops | Rwys | IFR | FBO | Links
Com | Nav | Svcs | Stats | Notes

Crowley
 
Area around 5HO (Hope Airport)
 
Road maps at: MapQuest Bing Google
 
Aerial photo
WARNING: Photo may not be current or correct
Aerial photo of 5HO (Hope Airport)
Photo by Jonathan Tack
Photo taken 07-Aug-2006

Do you have a better or more recent aerial photo of Hope Airport that you would like to share? If so, please send us your photo.

 
Sectional chart

 
Airport distance calculator
Flying to Hope Airport? Find the distance to fly.

From to 5HO

Sunrise and sunset
Times for 20-Aug-2018
 Local
(UTC-8)
 Zulu
(UTC)
Morning civil twilight05:3213:32
Sunrise06:2314:23
Sunset21:4105:41
Evening civil twilight22:3206:32

Current date and time
Zulu (UTC)  21-Aug-2018 00:14:58
Local (UTC-8)  20-Aug-2018 16:14:58
 
METAR
PANC 
19nm NW 
202353Z 04003KT 7SM -RA FEW008 BKN055 OVC070 14/13 A2997 RMK AO2 SLP148 P0005 60016 T01390128 10150 20133 58026
PALH 
19nm NW 
202353Z 32003KT 6SM -RA BR FEW013 OVC055 13/13 A2998 RMK AO2 SLP152 P0004 60016 T01330128 10144 20128 58026
PAMR 
20nm N 
202353Z 00000KT 10SM -RA BKN012 BKN024 OVC090 14/14 A2996 RMK AO2 SLP148 P0003 60014 T01390139 10156 20133 58026
PAED 
21nm N 
202256Z 01003KT 3SM RA BR FEW002 OVC020 13/12 A3000 RMK AO2A SLPNO ALSTG/SLP ESTMD
PAFR 
22nm N 
202332Z AUTO 00000KT 8SM -RA SCT005 BKN070 OVC095 13/13 A2996 RMK AO2 RAB02 SLP151
PATO 
24nm E 
202353Z AUTO 11015G28KT 3SM -RA SCT029 BKN034 OVC046 14/11 A3001 RMK AO2 PK WND 12032/2312 SLP162 P0007 60037 T01440111 10150 20133 56026 TSNO
PABV 
31nm N 
202356Z AUTO 35003KT 10SM FEW036 SCT048 OVC100 13/12 A2997 RMK AO2 RAE44 SLP157 P0001 60009 T01330122 10139 20117 58030 $
TAF
PANC 
19nm NW 
202034Z 2021/2124 VRB05KT P6SM -RA FEW004 BKN050 BKN080 FM210400 35004KT P6SM -SHRA BKN045 OVC060 FM211200 15007KT P6SM -RA BKN040 OVC050 FM212000 23005KT P6SM -SHRA OVC060
PAED 
21nm N 
202125Z 2021/2201 01006KT 8000 BR SCT003 BKN050 OVC100 QNH3002INS BECMG 2022/2023 01006KT 8000 -RA BR BKN020 OVC050 QNH2975INS TEMPO 2022/2102 0800 -RA FG TEMPO 2106/2112 BKN015 TX17/2100Z TN12/2115Z
NOTAMs
Click for the latest NOTAMs
NOTAMs are issued by the DoD/FAA and will open in a separate window not controlled by AirNav.

 

 
 

Would you like to see your business listed on this page?

 If your business provides an interesting product or service to pilots, flight crews, aircraft, or users of the Hope Airport, you should consider listing it here.  To start the listing process, click on the button below
 
Add a business
 

Other Pages about Hope Airport

Update a link
 
Copyright © AirNav, LLC. All rights reserved. Privacy Policy  Contact